• Join FlightAware (Why Join?)
  • Login
  • US Flag 
10:01AM EDT


 

Airport Tracker/Info


-or-


 

Live Flight TrackerFlight Track Log ✈ CMP205 ✈ 25-Sep-2013 ✈ MPTO / PTY - SBBR / BSB

Flight Track Log - Related Links

Times and Time Zones

All times are in EDT time to prevent confusion due to time zone crossing. See the CMP205 flight status page for this flight to view local times or setup timezone preferences in your user account.

Time Position Orientation Groundspeed Altitude Reporting Facility
EDT Latitude Longitude Course Direction KTS MPH feet Rate Location/Type
05:36PM 7.6150 -78.5670 101° East 466 536 31,900  Level FlightAware
05:36PM 7.5990 -78.4900 102° East 469 540 32,400 420 Climbing FlightAware
05:37PM 7.5870 -78.4310 102° East 469 540 32,400  Level FlightAware
05:37PM 7.5730 -78.3660 102° East 469 540 32,400 1,380 Level FlightAware
05:38PM 7.5540 -78.2650 101° East 453 521 34,000 1,680 Climbing FlightAware
05:39PM 7.5240 -78.1530 105° East 486 559 34,900 900 Climbing FlightAware
05:39PM 7.5150 -78.1370 120° Southeast 458 527 35,000 120 Climbing FlightAware
05:40PM 7.4700 -78.0710 125° Southeast 456 525 35,000  Level FlightAware
05:40PM 7.4270 -78.0120 126° Southeast 454 522 35,000  Level FlightAware
05:41PM 7.3850 -77.9520 125° Southeast 451 519 35,000  Level FlightAware
05:41PM 7.3360 -77.8820 125° Southeast 450 518 35,000  Level FlightAware
05:42PM 7.3000 -77.8310 125° Southeast 450 518 35,000  Level FlightAware
05:42PM 7.2610 -77.7760 126° Southeast 450 518 35,000  Level FlightAware
05:43PM 7.2100 -77.7050 126° Southeast 450 518 35,000  Level FlightAware
05:44PM 7.1670 -77.6440 125° Southeast 449 517 35,000  Level FlightAware
05:44PM 7.1310 -77.5940 126° Southeast 448 516 35,000  Level FlightAware
05:45PM 7.0830 -77.5260 125° Southeast 449 517 35,000  Level FlightAware
05:45PM 7.0460 -77.4750 126° Southeast 450 518 35,000  Level FlightAware
05:46PM 6.9970 -77.4060 126° Southeast 449 517 35,000  Level FlightAware
05:47PM 6.9640 -77.3610 126° Southeast 451 519 35,000  Level FlightAware
05:47PM 6.8990 -77.2700 126° Southeast 452 520 35,000  Level FlightAware
05:48PM 6.8460 -77.1960 126° Southeast 452 520 35,000  Level FlightAware
05:49PM 6.8060 -77.1400 126° Southeast 452 520 35,000  Level FlightAware
05:49PM 6.7680 -77.0870 126° Southeast 452 520 35,000  Level FlightAware
05:50PM 6.7160 -77.0150 126° Southeast 453 521 35,000  Level FlightAware
05:50PM 6.6740 -76.9570 126° Southeast 452 520 35,000  Level FlightAware
05:51PM 6.6330 -76.8990 125° Southeast 453 521 35,000  Level FlightAware
05:52PM 6.5880 -76.8360 126° Southeast 453 521 35,000  Level FlightAware
05:52PM 6.5480 -76.7810 126° Southeast 454 522 35,000  Level FlightAware
05:53PM 6.4990 -76.7140 126° Southeast 454 522 35,000  Level FlightAware
05:53PM 6.4620 -76.6610 125° Southeast 454 522 35,000  Level FlightAware
05:54PM 6.4240 -76.6090 126° Southeast 454 522 35,000  Level FlightAware
05:55PM 6.3690 -76.5320 126° Southeast 453 521 35,000  Level FlightAware
05:55PM 6.3260 -76.4720 126° Southeast 454 522 35,000  Level FlightAware
05:56PM 6.2820 -76.4110 126° Southeast 455 524 35,000  Level FlightAware
05:56PM 6.2340 -76.3440 126° Southeast 455 524 35,000  Level FlightAware
05:57PM 6.1890 -76.2820 126° Southeast 456 525 35,000  Level FlightAware
05:57PM 6.1530 -76.2320 126° Southeast 457 526 35,000  Level FlightAware
05:58PM 6.1100 -76.1720 126° Southeast 458 527 35,000  Level FlightAware
05:59PM 6.0580 -76.1010 126° Southeast 461 531 35,000  Level FlightAware
05:59PM 6.0150 -76.0410 126° Southeast 463 533 35,000  Level FlightAware
06:00PM 5.9780 -75.9890 126° Southeast 465 535 35,000  Level FlightAware
06:00PM 5.9340 -75.9280 126° Southeast 467 537 35,000  Level FlightAware
06:01PM 5.8870 -75.8630 126° Southeast 468 539 35,000  Level FlightAware
06:02PM 5.8380 -75.7950 126° Southeast 466 536 35,000  Level FlightAware
06:02PM 5.8060 -75.7520 127° Southeast 462 532 35,000  Level FlightAware
06:03PM 5.7630 -75.6920 126° Southeast 457 526 35,000  Level FlightAware
06:03PM 5.7200 -75.6320 126° Southeast 457 526 35,000  Level FlightAware
06:04PM 5.6710 -75.5640 126° Southeast 454 522 35,000  Level FlightAware
06:04PM 5.6370 -75.5160 125° Southeast 453 521 35,000  Level FlightAware
06:05PM 5.5890 -75.4520 127° Southeast 444 511 35,000  Level FlightAware
06:06PM 5.5470 -75.3930 126° Southeast 446 513 35,000  Level FlightAware
06:06PM 5.5030 -75.3330 126° Southeast 447 514 35,000  Level FlightAware
06:07PM 5.4590 -75.2720 126° Southeast 450 518 35,000  Level FlightAware
06:07PM 5.4200 -75.2180 126° Southeast 451 519 35,000  Level FlightAware
06:08PM 5.3760 -75.1580 126° Southeast 453 521 35,000  Level FlightAware
06:09PM 5.3310 -75.0950 126° Southeast 451 519 35,000  Level FlightAware
06:09PM 5.2870 -75.0340 126° Southeast 449 517 35,000  Level FlightAware
06:10PM 5.2430 -74.9740 126° Southeast 451 519 35,000  Level FlightAware
06:10PM 5.2040 -74.9190 125° Southeast 451 519 35,000  Level FlightAware
06:11PM 5.1860 -74.8890 121° Southeast 452 520 35,000  Level FlightAware
06:11PM 5.1310 -74.7970 121° Southeast 450 518 35,000  Level FlightAware
06:12PM 5.0930 -74.7340 121° Southeast 450 518 35,000  Level FlightAware
06:13PM 5.0530 -74.6660 121° Southeast 451 519 35,000  Level FlightAware
06:13PM 5.0190 -74.6100 121° Southeast 450 518 35,000  Level FlightAware
06:14PM 4.9790 -74.5450 122° Southeast 451 519 35,000  Level FlightAware
06:14PM 4.9410 -74.4800 120° Southeast 451 519 35,000  Level FlightAware
06:15PM 4.9040 -74.4190 121° Southeast 451 519 35,000  Level FlightAware
06:15PM 4.8700 -74.3620 121° Southeast 451 519 35,000  Level FlightAware
06:16PM 4.8250 -74.2970 125° Southeast 451 519 35,000  Level FlightAware
06:17PM 4.7820 -74.2450 130° Southeast 450 518 35,000  Level FlightAware
06:17PM 4.7320 -74.1850 130° Southeast 449 517 35,000  Level FlightAware
06:18PM 4.6850 -74.1280 130° Southeast 451 519 35,000  Level FlightAware
06:18PM 4.6400 -74.0740 130° Southeast 450 518 35,000  Level FlightAware
06:19PM 4.5930 -74.0160 129° Southeast 449 517 35,000  Level FlightAware
06:20PM 4.5430 -73.9570 130° Southeast 448 516 35,000  Level FlightAware
06:20PM 4.4990 -73.9040 130° Southeast 448 516 35,000  Level FlightAware
06:21PM 4.4520 -73.8470 130° Southeast 446 513 35,000  Level FlightAware
06:21PM 4.4050 -73.7900 130° Southeast 441 507 35,000  Level FlightAware
06:22PM 4.3590 -73.7340 129° Southeast 437 503 35,000  Level FlightAware
06:22PM 4.3170 -73.6840 130° Southeast 435 501 35,000  Level FlightAware
06:23PM 4.2700 -73.6270 130° Southeast 432 497 35,000  Level FlightAware
06:24PM 4.2260 -73.5740 130° Southeast 431 496 35,000  Level FlightAware
06:24PM 4.1810 -73.5200 130° Southeast 429 494 35,000  Level FlightAware
06:25PM 4.1340 -73.4630 130° Southeast 430 495 35,000  Level FlightAware
06:25PM 4.0890 -73.4090 130° Southeast 430 495 35,000  Level FlightAware
06:26PM 4.0260 -73.3370 131° Southeast 431 496 35,000  Level FlightAware
06:27PM 3.9800 -73.2840 131° Southeast 432 497 35,000  Level FlightAware
06:27PM 3.9370 -73.2360 132° Southeast 431 496 35,000  Level FlightAware
06:28PM 3.8940 -73.1800 128° Southeast 429 494 35,000  Level FlightAware
06:29PM 3.8650 -73.1130 113° Southeast 431 496 35,000  Level FlightAware
06:29PM 3.8420 -73.0570 112° Southeast 431 496 35,000  Level FlightAware
06:30PM 3.8180 -73.0000 113° Southeast 431 496 35,000  Level FlightAware
06:30PM 3.7940 -72.9440 113° Southeast 431 496 35,000  Level FlightAware
06:31PM 3.7700 -72.8880 113° Southeast 431 496 35,000  Level FlightAware
06:32PM 3.7460 -72.8310 113° Southeast 431 496 35,000  Level FlightAware
06:32PM 3.7220 -72.7750 113° Southeast 431 496 35,000  Level FlightAware
06:33PM 3.6980 -72.7190 113° Southeast 431 496 35,000  Level FlightAware
06:33PM 3.6750 -72.6630 112° Southeast 431 496 35,000  Level FlightAware
06:34PM 3.6510 -72.6060 113° Southeast 431 496 35,000  Level FlightAware
06:35PM 3.6260 -72.5480 113° Southeast 431 496 35,000  Level FlightAware
06:35PM 3.6020 -72.4920 113° Southeast 431 496 35,000  Level FlightAware
06:36PM 3.5790 -72.4360 112° Southeast 431 496 35,000  Level FlightAware
06:37PM 3.5540 -72.3780 113° Southeast 431 496 35,000  Level FlightAware
06:37PM 3.5290 -72.3190 113° Southeast 431 496 35,000  Level FlightAware
06:38PM 3.5050 -72.2620 113° Southeast 431 496 35,000 -60 Level FlightAware
06:40PM 3.3654 -72.0921 129° Southeast  Level Estimated
06:41PM 3.2857 -71.9951 129° Southeast  Level Estimated
06:42PM 3.2059 -71.8981 129° Southeast  Level Estimated
06:43PM 3.1261 -71.8011 129° Southeast  Level Estimated
06:44PM 3.0463 -71.7041 129° Southeast  Level Estimated
06:45PM 2.9665 -71.6071 129° Southeast  Level Estimated
06:46PM 2.8867 -71.5102 129° Southeast  Level Estimated
06:47PM 2.8069 -71.4132 129° Southeast  Level Estimated
06:48PM 2.7271 -71.3163 130° Southeast  Level Estimated
06:49PM 2.6473 -71.2194 130° Southeast  Level Estimated
06:50PM 2.5674 -71.1225 130° Southeast  Level Estimated
06:51PM 2.4876 -71.0256 130° Southeast  Level Estimated
06:52PM 2.4077 -70.9287 130° Southeast  Level Estimated
06:53PM 2.3279 -70.8318 130° Southeast  Level Estimated
06:54PM 2.2480 -70.7350 130° Southeast  Level Estimated
06:55PM 2.1681 -70.6381 130° Southeast  Level Estimated
06:56PM 2.0883 -70.5413 130° Southeast  Level Estimated
06:57PM 2.0084 -70.4444 130° Southeast  Level Estimated
06:58PM 1.9285 -70.3476 130° Southeast  Level Estimated
06:59PM 1.8486 -70.2508 130° Southeast  Level Estimated
07:00PM 1.7687 -70.1540 130° Southeast  Level Estimated
07:01PM 1.6888 -70.0572 130° Southeast  Level Estimated
07:02PM 1.6089 -69.9604 130° Southeast  Level Estimated
07:03PM 1.5290 -69.8636 130° Southeast  Level Estimated
07:04PM 1.4491 -69.7669 130° Southeast  Level Estimated
07:05PM 1.3692 -69.6701 130° Southeast  Level Estimated
07:06PM 1.2892 -69.5733 130° Southeast  Level Estimated
07:07PM 1.2093 -69.4766 130° Southeast  Level Estimated
07:08PM 1.1294 -69.3798 130° Southeast  Level Estimated
07:09PM 1.0494 -69.2831 130° Southeast  Level Estimated
07:10PM 0.9695 -69.1864 130° Southeast  Level Estimated
07:11PM 0.8895 -69.0896 130° Southeast  Level Estimated
07:12PM 0.8096 -68.9929 130° Southeast  Level Estimated
07:13PM 0.7296 -68.8962 130° Southeast  Level Estimated
07:14PM 0.6497 -68.7995 130° Southeast  Level Estimated
07:15PM 0.5697 -68.7027 130° Southeast  Level Estimated
07:16PM 0.4898 -68.6060 130° Southeast  Level Estimated
07:17PM 0.4098 -68.5093 130° Southeast  Level Estimated
07:18PM 0.3299 -68.4126 130° Southeast  Level Estimated
07:19PM 0.2499 -68.3159 130° Southeast  Level Estimated
07:20PM 0.1700 -68.2192 130° Southeast  Level Estimated
07:21PM 0.0900 -68.1225 130° Southeast  Level Estimated
07:22PM 0.0100 -68.0257 130° Southeast  Level Estimated
07:23PM -0.0699 -67.9290 130° Southeast  Level Estimated
07:24PM -0.1499 -67.8323 130° Southeast  Level Estimated
07:25PM -0.2298 -67.7356 130° Southeast  Level Estimated
07:26PM -0.3098 -67.6389 130° Southeast  Level Estimated
07:27PM -0.3898 -67.5422 130° Southeast  Level Estimated
07:28PM -0.4697 -67.4455 130° Southeast  Level Estimated
07:29PM -0.5497 -67.3488 130° Southeast  Level Estimated
07:30PM -0.6296 -67.2521 130° Southeast  Level Estimated
07:31PM -0.7096 -67.1553 130° Southeast  Level Estimated
07:32PM -0.7895 -67.0586 130° Southeast  Level Estimated
07:33PM -0.8695 -66.9619 130° Southeast  Level Estimated
07:34PM -0.9494 -66.8652 130° Southeast  Level Estimated
07:35PM -1.0293 -66.7684 130° Southeast  Level Estimated
07:36PM -1.1093 -66.6717 130° Southeast  Level Estimated
07:37PM -1.1892 -66.5749 130° Southeast  Level Estimated
07:38PM -1.2691 -66.4782 130° Southeast  Level Estimated
07:39PM -1.3491 -66.3814 130° Southeast  Level Estimated
07:40PM -1.4290 -66.2847 130° Southeast  Level Estimated
07:41PM -1.5089 -66.1879 130° Southeast  Level Estimated
07:42PM -1.5888 -66.0911 130° Southeast  Level Estimated
07:43PM -1.6687 -65.9943 130° Southeast  Level Estimated
07:44PM -1.7486 -65.8975 130° Southeast  Level Estimated
07:45PM -1.8285 -65.8007 130° Southeast  Level Estimated
07:46PM -1.9085 -65.7039 130° Southeast  Level Estimated
07:47PM -1.9883 -65.6071 130° Southeast  Level Estimated
07:48PM -2.0682 -65.5103 130° Southeast  Level Estimated
07:49PM -2.1481 -65.4134 130° Southeast  Level Estimated
07:50PM -2.2280 -65.3166 130° Southeast  Level Estimated
07:51PM -2.3078 -65.2197 130° Southeast  Level Estimated
07:52PM -2.3877 -65.1228 130° Southeast  Level Estimated
07:53PM -2.4676 -65.0260 130° Southeast  Level Estimated
07:54PM -2.5474 -64.9291 130° Southeast  Level Estimated
07:55PM -2.6272 -64.8322 130° Southeast  Level Estimated
07:56PM -2.7071 -64.7352 130° Southeast  Level Estimated
07:57PM -2.7869 -64.6383 130° Southeast  Level Estimated
07:58PM -2.8667 -64.5414 130° Southeast  Level Estimated
07:59PM -2.9465 -64.4444 129° Southeast  Level Estimated
08:00PM -3.0263 -64.3474 129° Southeast  Level Estimated
08:01PM -3.1061 -64.2505 129° Southeast  Level Estimated
08:02PM -3.1859 -64.1535 129° Southeast  Level Estimated
08:03PM -3.2657 -64.0564 129° Southeast  Level Estimated
08:04PM -3.3454 -63.9594 129° Southeast  Level Estimated
08:05PM -3.4252 -63.8624 129° Southeast  Level Estimated
08:06PM -3.5049 -63.7653 129° Southeast  Level Estimated
08:07PM -3.5846 -63.6682 129° Southeast  Level Estimated
08:08PM -3.6644 -63.5711 129° Southeast  Level Estimated
08:09PM -3.7441 -63.4740 129° Southeast  Level Estimated
08:10PM -3.8238 -63.3769 129° Southeast  Level Estimated
08:11PM -3.9035 -63.2797 129° Southeast  Level Estimated
08:12PM -3.9831 -63.1826 129° Southeast  Level Estimated
08:13PM -4.0628 -63.0854 129° Southeast  Level Estimated
08:14PM -4.1425 -62.9882 129° Southeast  Level Estimated
08:15PM -4.2221 -62.8909 129° Southeast  Level Estimated
08:16PM -4.3017 -62.7937 129° Southeast  Level Estimated
08:17PM -4.3814 -62.6964 129° Southeast  Level Estimated
08:18PM -4.4610 -62.5992 129° Southeast  Level Estimated
08:19PM -4.5406 -62.5018 129° Southeast  Level Estimated
08:20PM -4.6202 -62.4045 129° Southeast  Level Estimated
08:21PM -4.6997 -62.3072 129° Southeast  Level Estimated
08:22PM -4.7793 -62.2098 129° Southeast  Level Estimated
08:23PM -4.8588 -62.1124 129° Southeast  Level Estimated
08:24PM -4.9384 -62.0150 129° Southeast  Level Estimated
08:25PM -5.0179 -61.9175 129° Southeast  Level Estimated
08:26PM -5.0974 -61.8201 129° Southeast  Level Estimated
08:27PM -5.1768 -61.7226 129° Southeast  Level Estimated
08:28PM -5.2563 -61.6251 129° Southeast  Level Estimated
08:29PM -5.3358 -61.5275 129° Southeast  Level Estimated
08:30PM -5.4152 -61.4300 129° Southeast  Level Estimated
08:31PM -5.4946 -61.3324 129° Southeast  Level Estimated
08:32PM -5.5740 -61.2348 129° Southeast  Level Estimated
08:33PM -5.6534 -61.1371 129° Southeast  Level Estimated
08:34PM -5.7328 -61.0395 129° Southeast  Level Estimated
08:35PM -5.8122 -60.9417 129° Southeast  Level Estimated
08:36PM -5.8915 -60.8440 129° Southeast  Level Estimated
08:37PM -5.9708 -60.7463 129° Southeast  Level Estimated
08:38PM -6.0501 -60.6485 129° Southeast  Level Estimated
08:39PM -6.1294 -60.5507 129° Southeast  Level Estimated
08:40PM -6.2087 -60.4529 129° Southeast  Level Estimated
08:41PM -6.2879 -60.3550 129° Southeast  Level Estimated
08:42PM -6.3672 -60.2571 129° Southeast  Level Estimated
08:43PM -6.4464 -60.1591 129° Southeast  Level Estimated
08:44PM -6.5256 -60.0612 129° Southeast  Level Estimated
08:45PM -6.6048 -59.9632 129° Southeast  Level Estimated
08:46PM -6.6839 -59.8652 129° Southeast  Level Estimated
08:47PM -6.7631 -59.7671 129° Southeast  Level Estimated
08:48PM -6.8422 -59.6690 129° Southeast  Level Estimated
08:49PM -6.9213 -59.5709 129° Southeast  Level Estimated
08:50PM -7.0004 -59.4728 129° Southeast  Level Estimated
08:51PM -7.0794 -59.3746 129° Southeast  Level Estimated
08:52PM -7.1585 -59.2764 129° Southeast  Level Estimated
08:53PM -7.2375 -59.1781 129° Southeast  Level Estimated
08:54PM -7.3165 -59.0798 129° Southeast  Level Estimated
08:55PM -7.3955 -58.9815 129° Southeast  Level Estimated
08:56PM -7.4744 -58.8832 129° Southeast  Level Estimated
08:57PM -7.5534 -58.7848 129° Southeast  Level Estimated
08:58PM -7.6323 -58.6864 129° Southeast  Level Estimated
08:59PM -7.7112 -58.5879 129° Southeast  Level Estimated
09:00PM -7.7900 -58.4894 129° Southeast  Level Estimated
09:01PM -7.8689 -58.3909 129° Southeast  Level Estimated
09:02PM -7.9477 -58.2923 129° Southeast  Level Estimated
09:03PM -8.0265 -58.1937 129° Southeast  Level Estimated
09:04PM -8.1053 -58.0950 129° Southeast  Level Estimated
09:05PM -8.1840 -57.9963 129° Southeast  Level Estimated
09:06PM -8.2627 -57.8976 129° Southeast  Level Estimated
09:07PM -8.3414 -57.7988 129° Southeast  Level Estimated
09:08PM -8.4201 -57.7000 129° Southeast  Level Estimated
09:09PM -8.4988 -57.6012 129° Southeast  Level Estimated
09:10PM -8.5774 -57.5023 129° Southeast  Level Estimated
09:11PM -8.6560 -57.4034 129° Southeast  Level Estimated
09:12PM -8.7346 -57.3044 129° Southeast  Level Estimated
09:13PM -8.8131 -57.2054 129° Southeast  Level Estimated
09:14PM -8.8917 -57.1063 129° Southeast  Level Estimated
09:15PM -8.9702 -57.0072 129° Southeast  Level Estimated
09:16PM -9.0486 -56.9081 129° Southeast  Level Estimated
09:17PM -9.1271 -56.8089 129° Southeast  Level Estimated
09:18PM -9.2055 -56.7097 129° Southeast  Level Estimated
09:19PM -9.2839 -56.6104 129° Southeast  Level Estimated
09:20PM -9.3623 -56.5111 129° Southeast  Level Estimated
09:21PM -9.4406 -56.4117 129° Southeast  Level Estimated
09:22PM -9.5189 -56.3123 129° Southeast  Level Estimated
09:23PM -9.5972 -56.2129 129° Southeast  Level Estimated
09:24PM -9.6755 -56.1134 129° Southeast  Level Estimated
09:25PM -9.7537 -56.0139 129° Southeast  Level Estimated
09:26PM -9.8319 -55.9143 129° Southeast  Level Estimated
09:27PM -9.9101 -55.8146 129° Southeast  Level Estimated
09:28PM -9.9882 -55.7149 129° Southeast  Level Estimated
09:29PM -10.0663 -55.6152 129° Southeast  Level Estimated
09:30PM -10.1444 -55.5154 128° Southeast  Level Estimated
09:31PM -10.2224 -55.4156 128° Southeast  Level Estimated
09:32PM -10.3005 -55.3157 128° Southeast  Level Estimated
09:33PM -10.3784 -55.2158 128° Southeast  Level Estimated
09:34PM -10.4564 -55.1158 128° Southeast  Level Estimated
09:35PM -10.5343 -55.0158 128° Southeast  Level Estimated
09:36PM -10.6122 -54.9157 128° Southeast  Level Estimated
09:37PM -10.6901 -54.8156 128° Southeast  Level Estimated
09:38PM -10.7679 -54.7154 128° Southeast  Level Estimated
09:39PM -10.8457 -54.6152 128° Southeast  Level Estimated
09:40PM -10.9235 -54.5149 128° Southeast  Level Estimated
09:41PM -11.0012 -54.4145 128° Southeast  Level Estimated
09:42PM -11.0789 -54.3142 128° Southeast  Level Estimated
09:43PM -11.1566 -54.2137 128° Southeast  Level Estimated
09:44PM -11.2342 -54.1132 128° Southeast  Level Estimated
09:45PM -11.3118 -54.0127 128° Southeast  Level Estimated
09:46PM -11.3894 -53.9121 128° Southeast  Level Estimated
09:47PM -11.4669 -53.8114 128° Southeast  Level Estimated
09:48PM -11.5444 -53.7107 128° Southeast  Level Estimated
09:49PM -11.6219 -53.6099 128° Southeast  Level Estimated
09:50PM -11.6993 -53.5091 128° Southeast  Level Estimated
09:51PM -11.7767 -53.4082 128° Southeast  Level Estimated
09:52PM -11.8540 -53.3073 128° Southeast  Level Estimated
09:53PM -11.9314 -53.2063 128° Southeast  Level Estimated
09:54PM -12.0087 -53.1052 128° Southeast  Level Estimated
09:55PM -12.0859 -53.0041 128° Southeast  Level Estimated
09:56PM -12.1631 -52.9029 128° Southeast  Level Estimated
09:57PM -12.2403 -52.8017 128° Southeast  Level Estimated
09:58PM -12.3174 -52.7004 128° Southeast  Level Estimated
09:59PM -12.3945 -52.5991 128° Southeast  Level Estimated
10:00PM -12.4716 -52.4977 128° Southeast  Level Estimated
10:01PM -12.5486 -52.3962 128° Southeast  Level Estimated
10:02PM -12.6256 -52.2947 128° Southeast  Level Estimated
10:03PM -12.7026 -52.1931 128° Southeast  Level Estimated
10:04PM -12.7795 -52.0914 128° Southeast  Level Estimated
10:05PM -12.8563 -51.9897 128° Southeast  Level Estimated
10:06PM -12.9332 -51.8879 128° Southeast  Level Estimated
10:07PM -13.0100 -51.7861 128° Southeast  Level Estimated
10:08PM -13.0867 -51.6842 128° Southeast  Level Estimated
10:09PM -13.1634 -51.5822 128° Southeast  Level Estimated
10:10PM -13.2401 -51.4802 128° Southeast  Level Estimated
10:11PM -13.3167 -51.3781 128° Southeast  Level Estimated
10:12PM -13.3933 -51.2759 128° Southeast  Level Estimated
10:13PM -13.4699 -51.1737 128° Southeast  Level Estimated
10:14PM -13.5464 -51.0714 128° Southeast  Level Estimated
10:15PM -13.6229 -50.9691 128° Southeast  Level Estimated
10:16PM -13.6993 -50.8667 128° Southeast  Level Estimated
10:17PM -13.7757 -50.7642 128° Southeast  Level Estimated
10:18PM -13.8520 -50.6616 127° Southeast  Level Estimated
10:19PM -13.9283 -50.5590 127° Southeast  Level Estimated
10:20PM -14.0046 -50.4563 127° Southeast  Level Estimated
10:21PM -14.0808 -50.3535 127° Southeast  Level Estimated
10:22PM -14.1569 -50.2507 127° Southeast  Level Estimated
10:23PM -14.2331 -50.1478 127° Southeast  Level Estimated
10:24PM -14.3091 -50.0449 127° Southeast  Level Estimated
10:25PM -14.3852 -49.9418 127° Southeast  Level Estimated
10:26PM -14.4612 -49.8387 127° Southeast  Level Estimated
10:27PM -14.5371 -49.7356 127° Southeast  Level Estimated
10:28PM -14.6130 -49.6323 127° Southeast  Level Estimated
10:29PM -14.6889 -49.5290 127° Southeast  Level Estimated
10:30PM -14.7647 -49.4256 127° Southeast  Level Estimated
10:31PM -14.8405 -49.3222 127° Southeast  Level Estimated
10:32PM -14.9162 -49.2186 127° Southeast  Level Estimated
10:33PM -14.9918 -49.1150 127° Southeast  Level Estimated
10:33PM -14.9530 -49.3100 127° Southeast 462 532 32,800  Level FlightAware
10:34PM -15.0675 -49.0113 127° Southeast  Level Estimated
10:34PM -14.9910 -49.2580 127° Southeast 452 520 31,800  Level FlightAware
10:34PM -15.0350 -49.1960 126° Southeast 444 511 30,600 -1,980 Descending FlightAware
10:35PM -15.0770 -49.1380 127° Southeast 432 497 29,500 -1,800 Descending FlightAware
10:35PM -15.1170 -49.0820 127° Southeast 424 488 28,500 -1,860 Descending FlightAware
10:36PM -15.1600 -49.0220 127° Southeast 414 476 27,300 -1,800 Descending FlightAware
10:37PM -15.2160 -48.9440 127° Southeast 406 467 26,000 -960 Descending FlightAware
10:37PM -15.2520 -48.8920 126° Southeast 387 445 26,000  Level FlightAware
10:38PM -15.2900 -48.8390 127° Southeast 386 444 26,000  Level FlightAware
10:38PM -15.3220 -48.7940 126° Southeast 385 443 26,000  Level FlightAware
10:39PM -15.3580 -48.7420 126° Southeast 384 442 26,000  Level FlightAware
10:40PM -15.4010 -48.6820 127° Southeast 382 440 26,000 -840 Level FlightAware
10:40PM -15.4390 -48.6290 127° Southeast 377 434 25,000 -1,740 Descending FlightAware
10:41PM -15.4700 -48.5860 127° Southeast 372 428 24,100 -1,740 Descending FlightAware
10:41PM -15.5110 -48.5280 126° Southeast 366 421 23,000 -1,680 Descending FlightAware
10:42PM -15.5400 -48.4860 126° Southeast 359 413 22,200 -1,620 Descending FlightAware
10:42PM -15.5730 -48.4400 127° Southeast 354 407 21,300 -1,620 Descending FlightAware
10:43PM -15.6080 -48.3890 125° Southeast 348 400 20,300 -1,620 Descending FlightAware
10:44PM -15.6410 -48.3440 127° Southeast 342 394 19,400 -1,680 Descending FlightAware
10:44PM -15.6740 -48.2960 126° Southeast 335 386 18,400 -1,560 Descending FlightAware
10:45PM -15.7050 -48.2520 126° Southeast 328 377 17,600 -1,500 Descending FlightAware
10:45PM -15.7370 -48.2070 126° Southeast 322 371 16,700 -1,560 Descending FlightAware
10:46PM -15.7670 -48.1650 127° Southeast 313 360 15,800 -1,320 Descending FlightAware
10:46PM -15.7730 -48.1490 111° Southeast 311 358 15,600 -1,200 Descending FlightAware
10:46PM -15.7750 -48.1310 97° East 308 354 15,300 -1,800 Descending FlightAware
10:47PM -15.7630 -48.0900 73° East 306 352 14,500 -1,560 Descending FlightAware
10:47PM -15.7450 -48.0410 69° East 299 344 13,700 -1,260 Descending FlightAware
10:48PM -15.7300 -48.0000 69° East 292 336 13,100 -900 Descending FlightAware
10:49PM -15.7130 -47.9540 69° East 270 311 12,700 -960 Descending FlightAware
10:49PM -15.7020 -47.9100 75° East 266 306 12,000 -1,200 Descending FlightAware
10:50PM -15.6900 -47.8640 75° East 268 308 11,300 -1,200 Descending FlightAware
10:50PM -15.6810 -47.8260 76° East 274 315 10,700 -1,080 Descending FlightAware
10:51PM -15.6870 -47.7940 101° East 274 315 10,300 -960 Descending FlightAware
10:51PM -15.7070 -47.7650 126° Southeast 262 302 9,900 -780 Descending FlightAware
10:51PM -15.7160 -47.7530 128° Southeast 256 295 9,800 -600 Descending FlightAware
10:52PM -15.7290 -47.7340 125° Southeast 249 287 9,600 -960 Descending FlightAware
10:52PM -15.7360 -47.7220 121° Southeast 249 287 9,300 -1,440 Descending FlightAware
10:52PM -15.7550 -47.7030 136° Southeast 245 282 8,800 -1,380 Descending FlightAware
10:53PM -15.7950 -47.7090 188° South 221 254 7,900 -1,260 Descending FlightAware
10:53PM -15.8140 -47.7150 197° South 210 242 7,600 -1,080 Descending FlightAware
10:54PM -15.8320 -47.7210 198° South 198 228 7,200 -900 Descending FlightAware
10:54PM -15.8450 -47.7250 196° South 191 220 7,100 -720 Descending FlightAware
10:54PM -15.8610 -47.7320 203° Southwest 183 211 6,800 -960 Descending FlightAware
10:54PM -15.8630 -47.7340 224° Southwest 185 213 6,700 -1,620 Descending FlightAware
10:54PM -15.8670 -47.7430 245° Southwest 186 214 6,400 -1,620 Descending FlightAware
10:55PM -15.8680 -47.7480 258° West 184 212 6,300 -1,020 Descending FlightAware
10:55PM -15.8700 -47.7680 264° West 179 206 5,900 -1,080 Descending FlightAware
10:55PM -15.8710 -47.7860 267° West 178 205 5,500 -1,080 Descending FlightAware
10:56PM -15.8720 -47.8030 266° West 173 199 5,200 -1,080 Descending FlightAware
10:56PM -15.8730 -47.8150 265° West 169 194 4,900 -900 Descending FlightAware
10:56PM -15.8740 -47.8310 266° West 165 190 4,700 -780 Descending FlightAware
10:57PM -15.8750 -47.8470 266° West 161 185 4,400 -900 Descending FlightAware
10:57PM -15.8760 -47.8620 266° West 156 180 4,100 -840 Descending FlightAware
10:57PM -15.8770 -47.8800 267° West 155 178 3,800 -600 Descending FlightAware
10:57PM -15.8770 -47.8830 270° West 155 178 3,800 -780 Level FlightAware
10:58PM -15.8780 -47.9040 267° West 155 178 3,400 -480 Descending FlightAware
10:58PM -15.8800 -47.9220 263° West 155 178 3,400  Level FlightAware